sensor_id;sensor_type;location;lat;lon;timestamp;P1;durP1;ratioP1;P2;durP2;ratioP2
51614;SDS011;37695;52.960;6.188;2022-12-13T00:01:29;25.77;;;14.77;;
51614;SDS011;37695;52.960;6.188;2022-12-13T00:03:56;23.65;;;14.40;;
51614;SDS011;37695;52.960;6.188;2022-12-13T00:06:23;24.40;;;14.32;;
51614;SDS011;37695;52.960;6.188;2022-12-13T00:08:49;25.02;;;14.88;;
51614;SDS011;37695;52.960;6.188;2022-12-13T00:11:15;21.83;;;13.57;;
51614;SDS011;37695;52.960;6.188;2022-12-13T00:13:41;21.35;;;13.55;;
51614;SDS011;37695;52.960;6.188;2022-12-13T00:16:11;23.70;;;13.48;;
51614;SDS011;37695;52.960;6.188;2022-12-13T00:18:38;23.20;;;13.73;;
51614;SDS011;37695;52.960;6.188;2022-12-13T00:21:04;22.92;;;13.40;;
51614;SDS011;37695;52.960;6.188;2022-12-13T00:23:35;24.27;;;13.40;;
51614;SDS011;37695;52.960;6.188;2022-12-13T00:26:19;22.27;;;13.45;;
51614;SDS011;37695;52.960;6.188;2022-12-13T00:28:48;21.52;;;13.02;;
51614;SDS011;37695;52.960;6.188;2022-12-13T00:31:15;24.63;;;13.95;;
51614;SDS011;37695;52.960;6.188;2022-12-13T00:33:41;22.45;;;13.85;;
51614;SDS011;37695;52.960;6.188;2022-12-13T00:36:07;21.17;;;13.23;;
51614;SDS011;37695;52.960;6.188;2022-12-13T00:38:33;25.85;;;13.30;;
51614;SDS011;37695;52.960;6.188;2022-12-13T00:41:08;24.05;;;14.55;;
51614;SDS011;37695;52.960;6.188;2022-12-13T00:43:41;24.88;;;14.02;;
51614;SDS011;37695;52.960;6.188;2022-12-13T00:46:10;23.80;;;13.50;;
51614;SDS011;37695;52.960;6.188;2022-12-13T00:48:38;23.45;;;13.43;;
51614;SDS011;37695;52.960;6.188;2022-12-13T00:51:05;20.92;;;13.57;;
51614;SDS011;37695;52.960;6.188;2022-12-13T00:53:32;25.98;;;14.43;;
51614;SDS011;37695;52.960;6.188;2022-12-13T00:55:57;19.52;;;12.38;;
51614;SDS011;37695;52.960;6.188;2022-12-13T00:58:23;22.88;;;13.65;;
51614;SDS011;37695;52.960;6.188;2022-12-13T01:00:48;22.75;;;13.70;;
51614;SDS011;37695;52.960;6.188;2022-12-13T01:03:14;21.35;;;12.88;;
51614;SDS011;37695;52.960;6.188;2022-12-13T01:05:49;27.02;;;12.68;;
51614;SDS011;37695;52.960;6.188;2022-12-13T01:08:15;24.75;;;13.35;;
51614;SDS011;37695;52.960;6.188;2022-12-13T01:10:44;22.90;;;13.77;;
51614;SDS011;37695;52.960;6.188;2022-12-13T01:13:10;20.70;;;12.57;;
51614;SDS011;37695;52.960;6.188;2022-12-13T01:15:43;22.73;;;13.30;;
51614;SDS011;37695;52.960;6.188;2022-12-13T01:18:10;25.10;;;13.55;;
51614;SDS011;37695;52.960;6.188;2022-12-13T01:20:36;24.20;;;13.13;;
51614;SDS011;37695;52.960;6.188;2022-12-13T01:23:02;23.52;;;14.25;;
51614;SDS011;37695;52.960;6.188;2022-12-13T01:25:28;23.90;;;13.95;;
51614;SDS011;37695;52.960;6.188;2022-12-13T01:27:54;20.17;;;12.77;;
51614;SDS011;37695;52.960;6.188;2022-12-13T01:30:20;26.40;;;14.88;;
51614;SDS011;37695;52.960;6.188;2022-12-13T01:32:45;22.98;;;13.45;;
51614;SDS011;37695;52.960;6.188;2022-12-13T01:35:11;21.73;;;13.70;;
51614;SDS011;37695;52.960;6.188;2022-12-13T01:37:38;19.70;;;12.63;;
51614;SDS011;37695;52.960;6.188;2022-12-13T01:40:03;26.15;;;13.75;;
51614;SDS011;37695;52.960;6.188;2022-12-13T01:42:29;21.70;;;12.32;;
51614;SDS011;37695;52.960;6.188;2022-12-13T01:47:44;21.90;;;12.80;;
51614;SDS011;37695;52.960;6.188;2022-12-13T01:50:21;21.02;;;12.30;;
51614;SDS011;37695;52.960;6.188;2022-12-13T01:52:50;22.35;;;12.18;;
51614;SDS011;37695;52.960;6.188;2022-12-13T01:55:18;24.27;;;12.98;;
51614;SDS011;37695;52.960;6.188;2022-12-13T01:57:46;24.23;;;13.63;;
51614;SDS011;37695;52.960;6.188;2022-12-13T02:00:13;24.13;;;13.13;;
51614;SDS011;37695;52.960;6.188;2022-12-13T02:02:40;20.55;;;12.88;;
51614;SDS011;37695;52.960;6.188;2022-12-13T02:05:09;20.73;;;12.40;;
51614;SDS011;37695;52.960;6.188;2022-12-13T02:07:40;19.77;;;10.90;;
51614;SDS011;37695;52.960;6.188;2022-12-13T02:10:07;17.85;;;11.73;;
51614;SDS011;37695;52.960;6.188;2022-12-13T02:12:34;20.27;;;12.10;;
51614;SDS011;37695;52.960;6.188;2022-12-13T02:15:03;22.50;;;12.13;;
51614;SDS011;37695;52.960;6.188;2022-12-13T02:26:00;19.77;;;11.30;;
51614;SDS011;37695;52.960;6.188;2022-12-13T02:29:00;20.75;;;11.60;;
51614;SDS011;37695;52.960;6.188;2022-12-13T02:37:31;19.45;;;11.48;;
51614;SDS011;37695;52.960;6.188;2022-12-13T02:40:12;20.02;;;11.50;;
51614;SDS011;37695;52.960;6.188;2022-12-13T02:42:47;19.65;;;11.95;;
51614;SDS011;37695;52.960;6.188;2022-12-13T02:45:19;18.95;;;12.05;;
51614;SDS011;37695;52.960;6.188;2022-12-13T02:47:52;20.25;;;11.63;;
51614;SDS011;37695;52.960;6.188;2022-12-13T02:50:21;18.80;;;11.68;;
51614;SDS011;37695;52.960;6.188;2022-12-13T02:52:50;20.08;;;11.77;;
51614;SDS011;37695;52.960;6.188;2022-12-13T02:55:16;19.63;;;10.88;;
51614;SDS011;37695;52.960;6.188;2022-12-13T02:57:42;19.55;;;11.80;;
51614;SDS011;37695;52.960;6.188;2022-12-13T03:00:11;19.00;;;11.18;;
51614;SDS011;37695;52.960;6.188;2022-12-13T03:02:55;19.38;;;11.77;;
51614;SDS011;37695;52.960;6.188;2022-12-13T03:09:09;21.55;;;12.93;;
51614;SDS011;37695;52.960;6.188;2022-12-13T03:11:48;22.73;;;12.68;;
51614;SDS011;37695;52.960;6.188;2022-12-13T03:14:59;20.08;;;11.60;;
51614;SDS011;37695;52.960;6.188;2022-12-13T03:17:37;20.17;;;12.13;;
51614;SDS011;37695;52.960;6.188;2022-12-13T03:20:08;19.88;;;12.35;;
51614;SDS011;37695;52.960;6.188;2022-12-13T03:22:34;20.38;;;12.75;;
51614;SDS011;37695;52.960;6.188;2022-12-13T03:25:00;21.15;;;12.38;;
51614;SDS011;37695;52.960;6.188;2022-12-13T03:27:25;19.48;;;11.18;;
51614;SDS011;37695;52.960;6.188;2022-12-13T03:29:51;21.85;;;12.88;;
51614;SDS011;37695;52.960;6.188;2022-12-13T03:32:16;20.85;;;12.10;;
51614;SDS011;37695;52.960;6.188;2022-12-13T03:34:42;20.70;;;12.80;;
51614;SDS011;37695;52.960;6.188;2022-12-13T03:37:08;21.77;;;12.80;;
51614;SDS011;37695;52.960;6.188;2022-12-13T03:39:33;21.88;;;12.15;;
51614;SDS011;37695;52.960;6.188;2022-12-13T03:41:59;20.35;;;11.80;;
51614;SDS011;37695;52.960;6.188;2022-12-13T03:44:25;21.05;;;11.73;;
51614;SDS011;37695;52.960;6.188;2022-12-13T03:46:50;19.63;;;11.73;;
51614;SDS011;37695;52.960;6.188;2022-12-13T03:49:16;19.25;;;12.25;;
51614;SDS011;37695;52.960;6.188;2022-12-13T03:51:42;19.52;;;11.85;;
51614;SDS011;37695;52.960;6.188;2022-12-13T03:54:08;21.27;;;11.60;;
51614;SDS011;37695;52.960;6.188;2022-12-13T03:56:33;18.50;;;11.35;;
51614;SDS011;37695;52.960;6.188;2022-12-13T03:58:59;20.95;;;12.25;;
51614;SDS011;37695;52.960;6.188;2022-12-13T04:01:26;20.40;;;10.95;;
51614;SDS011;37695;52.960;6.188;2022-12-13T04:03:52;21.17;;;11.98;;
51614;SDS011;37695;52.960;6.188;2022-12-13T04:06:18;19.48;;;10.73;;
51614;SDS011;37695;52.960;6.188;2022-12-13T04:08:43;21.65;;;11.95;;
51614;SDS011;37695;52.960;6.188;2022-12-13T04:11:09;19.63;;;11.85;;
51614;SDS011;37695;52.960;6.188;2022-12-13T04:13:53;21.05;;;12.57;;
51614;SDS011;37695;52.960;6.188;2022-12-13T04:16:19;22.08;;;12.57;;
51614;SDS011;37695;52.960;6.188;2022-12-13T04:18:45;21.10;;;11.23;;
51614;SDS011;37695;52.960;6.188;2022-12-13T04:21:11;19.02;;;11.82;;
51614;SDS011;37695;52.960;6.188;2022-12-13T04:23:36;19.27;;;11.50;;
51614;SDS011;37695;52.960;6.188;2022-12-13T04:26:02;19.73;;;11.20;;
51614;SDS011;37695;52.960;6.188;2022-12-13T04:28:27;19.20;;;11.70;;
51614;SDS011;37695;52.960;6.188;2022-12-13T04:30:53;22.38;;;12.35;;
51614;SDS011;37695;52.960;6.188;2022-12-13T04:33:18;20.27;;;11.98;;
51614;SDS011;37695;52.960;6.188;2022-12-13T04:35:46;20.40;;;11.43;;
51614;SDS011;37695;52.960;6.188;2022-12-13T04:38:11;17.98;;;11.32;;
51614;SDS011;37695;52.960;6.188;2022-12-13T04:40:37;18.33;;;10.60;;
51614;SDS011;37695;52.960;6.188;2022-12-13T04:43:03;19.35;;;11.32;;
51614;SDS011;37695;52.960;6.188;2022-12-13T04:45:28;22.10;;;12.05;;
51614;SDS011;37695;52.960;6.188;2022-12-13T04:47:54;19.73;;;11.93;;
51614;SDS011;37695;52.960;6.188;2022-12-13T04:50:19;18.55;;;10.95;;
51614;SDS011;37695;52.960;6.188;2022-12-13T04:52:45;18.48;;;11.88;;
51614;SDS011;37695;52.960;6.188;2022-12-13T04:55:10;20.67;;;11.98;;
51614;SDS011;37695;52.960;6.188;2022-12-13T04:57:36;20.40;;;10.82;;
51614;SDS011;37695;52.960;6.188;2022-12-13T05:00:03;20.20;;;12.10;;
51614;SDS011;37695;52.960;6.188;2022-12-13T05:02:30;20.95;;;12.20;;
51614;SDS011;37695;52.960;6.188;2022-12-13T05:04:56;19.08;;;11.35;;
51614;SDS011;37695;52.960;6.188;2022-12-13T05:07:22;19.15;;;11.70;;
51614;SDS011;37695;52.960;6.188;2022-12-13T05:09:47;19.17;;;11.52;;
51614;SDS011;37695;52.960;6.188;2022-12-13T05:12:13;18.55;;;11.45;;
51614;SDS011;37695;52.960;6.188;2022-12-13T05:14:38;18.92;;;11.95;;
51614;SDS011;37695;52.960;6.188;2022-12-13T05:17:04;20.55;;;11.98;;
51614;SDS011;37695;52.960;6.188;2022-12-13T05:19:30;22.23;;;12.30;;
51614;SDS011;37695;52.960;6.188;2022-12-13T05:21:55;19.65;;;10.95;;
51614;SDS011;37695;52.960;6.188;2022-12-13T05:24:21;21.00;;;11.35;;
51614;SDS011;37695;52.960;6.188;2022-12-13T05:26:46;22.90;;;11.50;;
51614;SDS011;37695;52.960;6.188;2022-12-13T05:29:12;19.25;;;11.52;;
51614;SDS011;37695;52.960;6.188;2022-12-13T05:31:38;20.05;;;11.98;;
51614;SDS011;37695;52.960;6.188;2022-12-13T05:34:03;18.08;;;11.40;;
51614;SDS011;37695;52.960;6.188;2022-12-13T05:36:29;19.25;;;11.60;;
51614;SDS011;37695;52.960;6.188;2022-12-13T05:38:55;17.50;;;11.10;;
51614;SDS011;37695;52.960;6.188;2022-12-13T05:41:21;20.40;;;12.55;;
51614;SDS011;37695;52.960;6.188;2022-12-13T05:43:50;18.55;;;11.20;;
51614;SDS011;37695;52.960;6.188;2022-12-13T05:46:16;21.70;;;11.77;;
51614;SDS011;37695;52.960;6.188;2022-12-13T05:48:42;21.10;;;11.43;;
51614;SDS011;37695;52.960;6.188;2022-12-13T05:51:08;16.40;;;10.38;;
51614;SDS011;37695;52.960;6.188;2022-12-13T05:53:34;21.83;;;12.88;;
51614;SDS011;37695;52.960;6.188;2022-12-13T05:56:00;19.25;;;12.20;;
51614;SDS011;37695;52.960;6.188;2022-12-13T05:58:26;18.77;;;11.07;;
51614;SDS011;37695;52.960;6.188;2022-12-13T06:00:52;18.95;;;10.57;;
51614;SDS011;37695;52.960;6.188;2022-12-13T06:03:18;20.17;;;11.43;;
51614;SDS011;37695;52.960;6.188;2022-12-13T06:05:43;17.85;;;11.35;;
51614;SDS011;37695;52.960;6.188;2022-12-13T06:08:09;20.85;;;11.75;;
51614;SDS011;37695;52.960;6.188;2022-12-13T06:10:35;19.38;;;12.30;;
51614;SDS011;37695;52.960;6.188;2022-12-13T06:13:01;19.48;;;10.55;;
51614;SDS011;37695;52.960;6.188;2022-12-13T06:15:30;19.98;;;11.68;;
51614;SDS011;37695;52.960;6.188;2022-12-13T06:17:58;22.77;;;11.90;;
51614;SDS011;37695;52.960;6.188;2022-12-13T06:20:23;18.15;;;11.15;;
51614;SDS011;37695;52.960;6.188;2022-12-13T06:22:50;17.90;;;11.45;;
51614;SDS011;37695;52.960;6.188;2022-12-13T06:25:16;21.23;;;11.80;;
51614;SDS011;37695;52.960;6.188;2022-12-13T06:27:42;19.50;;;11.75;;
51614;SDS011;37695;52.960;6.188;2022-12-13T06:30:07;18.33;;;11.07;;
51614;SDS011;37695;52.960;6.188;2022-12-13T06:32:33;19.25;;;11.30;;
51614;SDS011;37695;52.960;6.188;2022-12-13T06:34:59;18.85;;;11.18;;
51614;SDS011;37695;52.960;6.188;2022-12-13T06:37:24;23.73;;;12.07;;
51614;SDS011;37695;52.960;6.188;2022-12-13T06:39:50;21.08;;;10.98;;
51614;SDS011;37695;52.960;6.188;2022-12-13T06:42:16;22.58;;;10.85;;
51614;SDS011;37695;52.960;6.188;2022-12-13T06:44:43;19.55;;;11.30;;
51614;SDS011;37695;52.960;6.188;2022-12-13T06:47:09;21.02;;;12.77;;
51614;SDS011;37695;52.960;6.188;2022-12-13T06:49:35;18.77;;;11.70;;
51614;SDS011;37695;52.960;6.188;2022-12-13T06:52:01;21.90;;;12.57;;
51614;SDS011;37695;52.960;6.188;2022-12-13T06:54:27;24.50;;;13.52;;
51614;SDS011;37695;52.960;6.188;2022-12-13T06:56:52;20.23;;;11.38;;
51614;SDS011;37695;52.960;6.188;2022-12-13T06:59:18;19.90;;;11.95;;
51614;SDS011;37695;52.960;6.188;2022-12-13T07:01:43;22.50;;;11.95;;
51614;SDS011;37695;52.960;6.188;2022-12-13T07:04:10;22.58;;;11.75;;
51614;SDS011;37695;52.960;6.188;2022-12-13T07:06:36;19.75;;;12.30;;
51614;SDS011;37695;52.960;6.188;2022-12-13T07:09:02;17.98;;;11.63;;
51614;SDS011;37695;52.960;6.188;2022-12-13T07:11:28;19.10;;;12.15;;
51614;SDS011;37695;52.960;6.188;2022-12-13T07:13:55;19.08;;;11.63;;
51614;SDS011;37695;52.960;6.188;2022-12-13T07:16:21;21.63;;;12.90;;
51614;SDS011;37695;52.960;6.188;2022-12-13T07:18:52;20.73;;;12.30;;
51614;SDS011;37695;52.960;6.188;2022-12-13T07:21:21;19.23;;;11.85;;
51614;SDS011;37695;52.960;6.188;2022-12-13T07:23:47;20.35;;;11.68;;
51614;SDS011;37695;52.960;6.188;2022-12-13T07:26:14;18.48;;;11.35;;
51614;SDS011;37695;52.960;6.188;2022-12-13T07:28:40;21.15;;;12.13;;
51614;SDS011;37695;52.960;6.188;2022-12-13T07:31:07;21.40;;;13.35;;
51614;SDS011;37695;52.960;6.188;2022-12-13T07:33:33;21.08;;;12.13;;
51614;SDS011;37695;52.960;6.188;2022-12-13T07:38:26;25.70;;;13.88;;
51614;SDS011;37695;52.960;6.188;2022-12-13T07:40:54;18.88;;;12.25;;
51614;SDS011;37695;52.960;6.188;2022-12-13T07:43:20;21.77;;;12.52;;
51614;SDS011;37695;52.960;6.188;2022-12-13T07:45:46;19.25;;;11.77;;
51614;SDS011;37695;52.960;6.188;2022-12-13T07:48:12;17.95;;;11.48;;
51614;SDS011;37695;52.960;6.188;2022-12-13T07:50:37;22.92;;;12.35;;
51614;SDS011;37695;52.960;6.188;2022-12-13T07:53:04;17.70;;;11.77;;
51614;SDS011;37695;52.960;6.188;2022-12-13T07:55:31;21.77;;;12.60;;
51614;SDS011;37695;52.960;6.188;2022-12-13T07:58:06;20.13;;;12.40;;
51614;SDS011;37695;52.960;6.188;2022-12-13T08:00:37;21.52;;;12.85;;
51614;SDS011;37695;52.960;6.188;2022-12-13T08:03:03;20.65;;;11.82;;
51614;SDS011;37695;52.960;6.188;2022-12-13T08:05:29;17.85;;;11.45;;
51614;SDS011;37695;52.960;6.188;2022-12-13T08:07:55;22.45;;;12.18;;
51614;SDS011;37695;52.960;6.188;2022-12-13T08:10:21;23.48;;;13.00;;
51614;SDS011;37695;52.960;6.188;2022-12-13T08:12:46;24.20;;;13.35;;
51614;SDS011;37695;52.960;6.188;2022-12-13T08:15:14;19.73;;;13.30;;
51614;SDS011;37695;52.960;6.188;2022-12-13T08:17:39;21.77;;;13.07;;
51614;SDS011;37695;52.960;6.188;2022-12-13T08:20:05;21.67;;;13.02;;
51614;SDS011;37695;52.960;6.188;2022-12-13T08:22:31;22.02;;;12.30;;
51614;SDS011;37695;52.960;6.188;2022-12-13T08:24:56;20.63;;;13.27;;
51614;SDS011;37695;52.960;6.188;2022-12-13T08:27:21;20.85;;;13.27;;
51614;SDS011;37695;52.960;6.188;2022-12-13T08:29:47;20.50;;;12.68;;
51614;SDS011;37695;52.960;6.188;2022-12-13T08:32:13;25.20;;;13.45;;
51614;SDS011;37695;52.960;6.188;2022-12-13T08:34:38;21.38;;;12.23;;
51614;SDS011;37695;52.960;6.188;2022-12-13T08:37:05;20.50;;;12.20;;
51614;SDS011;37695;52.960;6.188;2022-12-13T08:39:31;21.05;;;13.35;;
51614;SDS011;37695;52.960;6.188;2022-12-13T08:41:58;21.90;;;13.63;;
51614;SDS011;37695;52.960;6.188;2022-12-13T08:44:24;22.25;;;14.48;;
51614;SDS011;37695;52.960;6.188;2022-12-13T08:46:49;25.75;;;15.02;;
51614;SDS011;37695;52.960;6.188;2022-12-13T08:49:15;24.10;;;14.02;;
51614;SDS011;37695;52.960;6.188;2022-12-13T08:51:40;22.38;;;13.73;;
51614;SDS011;37695;52.960;6.188;2022-12-13T08:54:06;22.63;;;13.40;;
51614;SDS011;37695;52.960;6.188;2022-12-13T08:56:31;20.05;;;13.85;;
51614;SDS011;37695;52.960;6.188;2022-12-13T08:58:57;18.83;;;12.63;;
51614;SDS011;37695;52.960;6.188;2022-12-13T09:01:22;25.17;;;14.00;;
51614;SDS011;37695;52.960;6.188;2022-12-13T09:03:48;22.42;;;13.95;;
51614;SDS011;37695;52.960;6.188;2022-12-13T09:06:14;20.30;;;13.18;;
51614;SDS011;37695;52.960;6.188;2022-12-13T09:08:41;19.17;;;12.60;;
51614;SDS011;37695;52.960;6.188;2022-12-13T09:11:08;21.73;;;13.02;;
51614;SDS011;37695;52.960;6.188;2022-12-13T09:13:34;24.58;;;14.75;;
51614;SDS011;37695;52.960;6.188;2022-12-13T09:16:09;23.10;;;14.13;;
51614;SDS011;37695;52.960;6.188;2022-12-13T09:18:40;20.88;;;13.40;;
51614;SDS011;37695;52.960;6.188;2022-12-13T09:21:07;21.60;;;13.68;;
51614;SDS011;37695;52.960;6.188;2022-12-13T09:23:34;24.92;;;15.27;;
51614;SDS011;37695;52.960;6.188;2022-12-13T09:26:00;23.60;;;14.52;;
51614;SDS011;37695;52.960;6.188;2022-12-13T09:28:26;25.20;;;15.10;;
51614;SDS011;37695;52.960;6.188;2022-12-13T09:30:53;22.98;;;14.93;;
51614;SDS011;37695;52.960;6.188;2022-12-13T09:33:19;21.83;;;14.50;;
51614;SDS011;37695;52.960;6.188;2022-12-13T09:35:45;22.50;;;14.70;;
51614;SDS011;37695;52.960;6.188;2022-12-13T09:38:11;27.17;;;15.88;;
51614;SDS011;37695;52.960;6.188;2022-12-13T09:40:37;24.25;;;14.13;;
51614;SDS011;37695;52.960;6.188;2022-12-13T09:43:03;20.88;;;13.52;;
51614;SDS011;37695;52.960;6.188;2022-12-13T09:45:29;23.35;;;15.20;;
51614;SDS011;37695;52.960;6.188;2022-12-13T09:47:57;24.83;;;15.65;;
51614;SDS011;37695;52.960;6.188;2022-12-13T09:50:31;24.50;;;15.68;;
51614;SDS011;37695;52.960;6.188;2022-12-13T09:53:00;23.88;;;15.13;;
51614;SDS011;37695;52.960;6.188;2022-12-13T09:55:35;24.23;;;15.25;;
51614;SDS011;37695;52.960;6.188;2022-12-13T09:58:07;22.38;;;14.82;;
51614;SDS011;37695;52.960;6.188;2022-12-13T10:00:38;23.02;;;14.82;;
51614;SDS011;37695;52.960;6.188;2022-12-13T10:03:04;24.70;;;15.90;;
51614;SDS011;37695;52.960;6.188;2022-12-13T10:05:34;25.27;;;15.48;;
51614;SDS011;37695;52.960;6.188;2022-12-13T10:08:14;25.33;;;15.65;;
51614;SDS011;37695;52.960;6.188;2022-12-13T10:10:44;22.83;;;13.88;;
51614;SDS011;37695;52.960;6.188;2022-12-13T10:13:20;23.17;;;15.15;;
51614;SDS011;37695;52.960;6.188;2022-12-13T10:15:58;22.25;;;14.43;;
51614;SDS011;37695;52.960;6.188;2022-12-13T10:18:37;24.52;;;15.23;;
51614;SDS011;37695;52.960;6.188;2022-12-13T10:21:09;22.25;;;14.93;;
51614;SDS011;37695;52.960;6.188;2022-12-13T10:23:46;22.33;;;14.07;;
51614;SDS011;37695;52.960;6.188;2022-12-13T10:26:12;24.35;;;15.38;;
51614;SDS011;37695;52.960;6.188;2022-12-13T10:28:38;27.30;;;16.30;;
51614;SDS011;37695;52.960;6.188;2022-12-13T10:31:04;21.67;;;14.93;;
51614;SDS011;37695;52.960;6.188;2022-12-13T10:33:31;22.92;;;14.85;;
51614;SDS011;37695;52.960;6.188;2022-12-13T10:38:40;23.17;;;15.25;;
51614;SDS011;37695;52.960;6.188;2022-12-13T10:44:07;23.42;;;14.93;;
51614;SDS011;37695;52.960;6.188;2022-12-13T10:46:38;22.20;;;15.30;;
51614;SDS011;37695;52.960;6.188;2022-12-13T10:49:20;24.02;;;15.48;;
51614;SDS011;37695;52.960;6.188;2022-12-13T10:51:48;23.80;;;14.40;;
51614;SDS011;37695;52.960;6.188;2022-12-13T10:54:26;24.30;;;15.77;;
51614;SDS011;37695;52.960;6.188;2022-12-13T10:56:54;25.70;;;16.15;;
51614;SDS011;37695;52.960;6.188;2022-12-13T10:59:34;23.77;;;16.25;;
51614;SDS011;37695;52.960;6.188;2022-12-13T11:04:51;25.35;;;15.75;;
51614;SDS011;37695;52.960;6.188;2022-12-13T11:07:21;23.75;;;15.85;;
51614;SDS011;37695;52.960;6.188;2022-12-13T11:09:58;26.98;;;15.93;;
51614;SDS011;37695;52.960;6.188;2022-12-13T11:12:47;26.63;;;16.73;;
51614;SDS011;37695;52.960;6.188;2022-12-13T11:15:16;22.30;;;14.98;;
51614;SDS011;37695;52.960;6.188;2022-12-13T11:17:49;25.45;;;16.45;;
51614;SDS011;37695;52.960;6.188;2022-12-13T11:20:24;23.60;;;14.73;;
51614;SDS011;37695;52.960;6.188;2022-12-13T11:22:59;24.05;;;15.95;;
51614;SDS011;37695;52.960;6.188;2022-12-13T11:25:40;25.63;;;15.93;;
51614;SDS011;37695;52.960;6.188;2022-12-13T11:28:14;23.75;;;15.65;;
51614;SDS011;37695;52.960;6.188;2022-12-13T11:31:08;24.08;;;15.75;;
51614;SDS011;37695;52.960;6.188;2022-12-13T11:39:51;22.60;;;14.20;;
51614;SDS011;37695;52.960;6.188;2022-12-13T11:45:13;22.52;;;15.73;;
51614;SDS011;37695;52.960;6.188;2022-12-13T11:47:43;25.85;;;15.35;;
51614;SDS011;37695;52.960;6.188;2022-12-13T11:50:47;23.75;;;15.45;;
51614;SDS011;37695;52.960;6.188;2022-12-13T11:59:01;24.90;;;13.77;;
51614;SDS011;37695;52.960;6.188;2022-12-13T12:01:54;21.00;;;14.25;;
51614;SDS011;37695;52.960;6.188;2022-12-13T12:04:38;24.30;;;14.75;;
51614;SDS011;37695;52.960;6.188;2022-12-13T12:09:42;22.40;;;15.45;;
51614;SDS011;37695;52.960;6.188;2022-12-13T12:12:20;21.35;;;14.48;;
51614;SDS011;37695;52.960;6.188;2022-12-13T12:17:35;22.40;;;15.38;;
51614;SDS011;37695;52.960;6.188;2022-12-13T12:20:01;20.95;;;14.45;;
51614;SDS011;37695;52.960;6.188;2022-12-13T12:25:36;21.30;;;15.35;;
51614;SDS011;37695;52.960;6.188;2022-12-13T12:30:52;23.23;;;15.57;;
51614;SDS011;37695;52.960;6.188;2022-12-13T12:33:37;21.30;;;14.70;;
51614;SDS011;37695;52.960;6.188;2022-12-13T12:36:33;24.27;;;15.63;;
51614;SDS011;37695;52.960;6.188;2022-12-13T12:42:08;22.75;;;14.98;;
51614;SDS011;37695;52.960;6.188;2022-12-13T12:48:08;21.00;;;14.35;;
51614;SDS011;37695;52.960;6.188;2022-12-13T12:50:49;22.15;;;15.13;;
51614;SDS011;37695;52.960;6.188;2022-12-13T12:56:03;22.80;;;15.88;;
51614;SDS011;37695;52.960;6.188;2022-12-13T13:04:55;22.48;;;14.63;;
51614;SDS011;37695;52.960;6.188;2022-12-13T13:07:28;19.45;;;14.45;;
51614;SDS011;37695;52.960;6.188;2022-12-13T13:10:04;21.60;;;15.82;;
51614;SDS011;37695;52.960;6.188;2022-12-13T13:12:32;22.00;;;15.13;;
51614;SDS011;37695;52.960;6.188;2022-12-13T13:17:57;22.83;;;16.20;;
51614;SDS011;37695;52.960;6.188;2022-12-13T13:20:24;26.20;;;16.65;;
51614;SDS011;37695;52.960;6.188;2022-12-13T13:22:54;21.67;;;15.73;;
51614;SDS011;37695;52.960;6.188;2022-12-13T13:25:27;25.33;;;16.65;;
51614;SDS011;37695;52.960;6.188;2022-12-13T13:33:49;24.05;;;16.98;;
51614;SDS011;37695;52.960;6.188;2022-12-13T13:39:13;20.33;;;15.00;;
51614;SDS011;37695;52.960;6.188;2022-12-13T13:41:52;23.33;;;15.18;;
51614;SDS011;37695;52.960;6.188;2022-12-13T14:01:01;21.15;;;15.02;;
51614;SDS011;37695;52.960;6.188;2022-12-13T14:07:10;19.17;;;13.30;;
51614;SDS011;37695;52.960;6.188;2022-12-13T14:10:03;22.85;;;14.50;;
51614;SDS011;37695;52.960;6.188;2022-12-13T14:29:43;22.05;;;15.38;;
51614;SDS011;37695;52.960;6.188;2022-12-13T14:32:21;24.48;;;15.88;;
51614;SDS011;37695;52.960;6.188;2022-12-13T14:34:49;21.25;;;15.85;;
51614;SDS011;37695;52.960;6.188;2022-12-13T14:39:57;23.50;;;16.63;;
51614;SDS011;37695;52.960;6.188;2022-12-13T14:42:25;23.17;;;15.63;;
51614;SDS011;37695;52.960;6.188;2022-12-13T14:44:54;23.90;;;16.65;;
51614;SDS011;37695;52.960;6.188;2022-12-13T14:47:20;26.00;;;17.00;;
51614;SDS011;37695;52.960;6.188;2022-12-13T14:49:49;26.27;;;16.98;;
51614;SDS011;37695;52.960;6.188;2022-12-13T14:52:22;24.20;;;16.67;;
51614;SDS011;37695;52.960;6.188;2022-12-13T14:54:57;22.98;;;15.52;;
51614;SDS011;37695;52.960;6.188;2022-12-13T14:57:25;22.65;;;15.90;;
51614;SDS011;37695;52.960;6.188;2022-12-13T14:59:54;22.10;;;15.52;;
51614;SDS011;37695;52.960;6.188;2022-12-13T15:02:22;26.70;;;15.73;;
51614;SDS011;37695;52.960;6.188;2022-12-13T15:04:56;23.08;;;14.55;;
51614;SDS011;37695;52.960;6.188;2022-12-13T15:07:26;20.85;;;15.70;;
51614;SDS011;37695;52.960;6.188;2022-12-13T15:10:03;21.27;;;13.75;;
51614;SDS011;37695;52.960;6.188;2022-12-13T15:12:29;24.20;;;15.63;;
51614;SDS011;37695;52.960;6.188;2022-12-13T15:14:59;21.23;;;15.13;;
51614;SDS011;37695;52.960;6.188;2022-12-13T15:17:30;20.10;;;14.25;;
51614;SDS011;37695;52.960;6.188;2022-12-13T15:19:58;23.38;;;15.13;;
51614;SDS011;37695;52.960;6.188;2022-12-13T15:22:24;25.23;;;16.08;;
51614;SDS011;37695;52.960;6.188;2022-12-13T15:24:50;22.35;;;15.65;;
51614;SDS011;37695;52.960;6.188;2022-12-13T15:27:17;23.33;;;15.77;;
51614;SDS011;37695;52.960;6.188;2022-12-13T15:29:45;23.60;;;15.48;;
51614;SDS011;37695;52.960;6.188;2022-12-13T15:32:13;25.83;;;16.45;;
51614;SDS011;37695;52.960;6.188;2022-12-13T15:34:42;24.83;;;15.35;;
51614;SDS011;37695;52.960;6.188;2022-12-13T15:39:37;23.40;;;14.95;;
51614;SDS011;37695;52.960;6.188;2022-12-13T15:42:04;26.08;;;14.75;;
51614;SDS011;37695;52.960;6.188;2022-12-13T15:44:46;25.27;;;16.20;;
51614;SDS011;37695;52.960;6.188;2022-12-13T15:47:14;21.83;;;15.07;;
51614;SDS011;37695;52.960;6.188;2022-12-13T15:49:48;21.50;;;14.70;;
51614;SDS011;37695;52.960;6.188;2022-12-13T15:52:34;25.35;;;16.38;;
51614;SDS011;37695;52.960;6.188;2022-12-13T15:57:34;27.08;;;17.60;;
51614;SDS011;37695;52.960;6.188;2022-12-13T16:02:47;26.35;;;16.38;;
51614;SDS011;37695;52.960;6.188;2022-12-13T16:05:17;29.63;;;16.30;;
51614;SDS011;37695;52.960;6.188;2022-12-13T16:08:05;25.27;;;17.38;;
51614;SDS011;37695;52.960;6.188;2022-12-13T16:10:44;26.05;;;17.98;;
51614;SDS011;37695;52.960;6.188;2022-12-13T16:13:15;27.40;;;19.05;;
51614;SDS011;37695;52.960;6.188;2022-12-13T16:15:56;24.02;;;16.15;;
51614;SDS011;37695;52.960;6.188;2022-12-13T16:18:29;25.88;;;16.48;;
51614;SDS011;37695;52.960;6.188;2022-12-13T16:20:57;25.20;;;17.27;;
51614;SDS011;37695;52.960;6.188;2022-12-13T16:23:22;26.15;;;17.52;;
51614;SDS011;37695;52.960;6.188;2022-12-13T16:25:48;25.55;;;17.77;;
51614;SDS011;37695;52.960;6.188;2022-12-13T16:28:15;27.50;;;16.33;;
51614;SDS011;37695;52.960;6.188;2022-12-13T16:35:45;23.33;;;15.73;;
51614;SDS011;37695;52.960;6.188;2022-12-13T16:38:12;22.15;;;15.00;;
51614;SDS011;37695;52.960;6.188;2022-12-13T16:40:39;24.13;;;16.58;;
51614;SDS011;37695;52.960;6.188;2022-12-13T16:43:05;26.63;;;17.25;;
51614;SDS011;37695;52.960;6.188;2022-12-13T16:45:39;27.70;;;18.00;;
51614;SDS011;37695;52.960;6.188;2022-12-13T16:48:10;28.75;;;18.58;;
51614;SDS011;37695;52.960;6.188;2022-12-13T16:50:40;30.45;;;20.38;;